Time;durP1;ratioP1;P1;durP2;ratioP2;P2;SDS_P1;SDS_P2;PMS_P1;PMS_P2;Temp;Humidity;BMP_temperature;BMP_pressure;BME280_temperature;BME280_humidity;BME280_pressure;Samples;Min_cycle;Max_cycle;Signal;HPM_P1;HPM_P2
2023/10/25 00:10:50;;;;;;;;;;;;;;;11.63;91.80;98800.13;1088092;54;1934;-82
2023/10/25 00:12:04;;;;;;;;;;;;;;;11.64;92.40;98799.13;1088169;47;978;-82
2023/10/25 00:13:38;;;;;;;;;;;;;;;11.68;91.73;98804.94;1088460;54;1019;-83
2023/10/25 00:14:39;;;;;;;;;;;;;;;11.69;91.43;98798.56;1088470;54;1033;-82
2023/10/25 00:18:35;;;;;;;;;;;;;;;11.69;91.60;98801.25;1088598;47;1051;-81
2023/10/25 00:19:45;;;;;;;;;;;;;;;11.68;91.73;98796.91;1088529;46;1849;-82
2023/10/25 00:20:57;;;;;;;;;;;;;;;11.67;91.73;98800.59;1088449;54;1002;-82
2023/10/25 00:22:15;;;;;;;;;;;;;;;11.64;91.31;98791.09;1088514;46;900;-82
2023/10/25 00:33:02;;;;;;;;;;;;;;;11.55;91.83;98778.81;1088726;47;868;-82
2023/10/25 00:34:05;;;;;;;;;;;;;;;11.57;91.93;98792.03;1088592;47;950;-81
2023/10/25 01:54:06;;;;;;;;;;;;;;;11.08;93.01;98776.19;1088143;54;1972;-82
2023/10/25 01:55:13;;;;;;;;;;;;;;;11.11;92.87;98768.84;1089133;54;979;-81
2023/10/25 03:03:03;;;;;;;;;;;;;;;10.70;94.02;98746.72;1088273;54;2077;-82
2023/10/25 03:05:40;;;;;;;;;;;;;;;10.76;93.63;98738.03;1088942;47;976;-80
2023/10/25 03:06:43;;;;;;;;;;;;;;;10.76;93.71;98740.69;1089002;54;1396;-80
2023/10/25 03:07:47;;;;;;;;;;;;;;;10.79;93.64;98744.00;1088862;47;957;-81
2023/10/25 04:11:04;;;;;;;;;;;;;;;10.65;93.47;98657.41;1087783;54;1235;-81
2023/10/25 04:12:12;;;;;;;;;;;;;;;10.67;93.21;98664.25;1088620;47;979;-82
2023/10/25 04:13:18;;;;;;;;;;;;;;;10.64;92.86;98661.94;1088835;54;908;-82
2023/10/25 04:14:19;;;;;;;;;;;;;;;10.67;93.20;98655.38;1088485;47;976;-81
2023/10/25 04:15:22;;;;;;;;;;;;;;;10.70;93.19;98660.38;1088322;47;928;-80
2023/10/25 04:16:23;;;;;;;;;;;;;;;10.71;92.89;98652.16;1088331;47;1367;-81
2023/10/25 04:17:26;;;;;;;;;;;;;;;10.71;92.39;98652.16;1088332;47;954;-81
2023/10/25 04:18:27;;;;;;;;;;;;;;;10.73;92.86;98647.50;1088356;47;893;-80
2023/10/25 04:19:28;;;;;;;;;;;;;;;10.75;92.84;98657.97;1088462;54;903;-80
2023/10/25 04:20:36;;;;;;;;;;;;;;;10.75;92.52;98648.16;1088430;54;1842;-82
2023/10/25 04:44:50;;;;;;;;;;;;;;;10.56;92.05;98654.78;1087832;54;1197;-80
2023/10/25 04:46:17;;;;;;;;;;;;;;;10.57;93.05;98647.63;1087938;47;1168;-80
2023/10/25 04:48:44;;;;;;;;;;;;;;;10.60;92.51;98641.91;1088068;46;1054;-81
2023/10/25 04:50:32;;;;;;;;;;;;;;;10.58;92.79;98642.09;1088111;54;1434;-80
2023/10/25 04:51:48;;;;;;;;;;;;;;;10.61;93.01;98636.41;1087985;47;1206;-81
2023/10/25 05:24:32;;;;;;;;;;;;;;;10.54;92.96;98618.59;1089156;54;1925;-81
2023/10/25 05:30:32;;;;;;;;;;;;;;;10.48;94.09;98598.75;1088940;47;879;-84
2023/10/25 07:23:47;;;;;;;;;;;;;;;11.52;85.98;98479.47;1087993;54;1026;-80
2023/10/25 07:25:15;;;;;;;;;;;;;;;11.59;85.13;98477.69;1087904;47;959;-80
2023/10/25 07:26:19;;;;;;;;;;;;;;;11.62;84.21;98477.28;1088049;47;1315;-80
2023/10/25 07:27:44;;;;;;;;;;;;;;;11.68;84.32;98465.81;1088187;54;1465;-80
2023/10/25 07:34:37;;;;;;;;;;;;;;;11.77;84.31;98463.03;1088655;46;936;-82
2023/10/25 07:38:52;;;;;;;;;;;;;;;11.69;84.93;98464.81;1088287;47;968;-81
2023/10/25 07:40:09;;;;;;;;;;;;;;;11.67;83.81;98464.16;1087781;47;1027;-79
2023/10/25 07:41:13;;;;;;;;;;;;;;;11.76;83.11;98458.69;1088477;54;1856;-81
2023/10/25 07:42:13;;;;;;;;;;;;;;;11.89;82.53;98456.16;1088457;46;924;-80
2023/10/25 07:43:30;;;;;;;;;;;;;;;11.94;81.25;98463.59;1088182;47;1083;-80
2023/10/25 07:49:02;;;;;;;;;;;;;;;12.18;79.78;98454.34;1088440;47;892;-81
2023/10/25 07:50:05;;;;;;;;;;;;;;;12.20;79.70;98446.13;1088317;54;1087;-79
2023/10/25 07:51:09;;;;;;;;;;;;;;;12.20;78.10;98443.44;1088449;47;1035;-80
2023/10/25 07:52:16;;;;;;;;;;;;;;;12.19;78.53;98445.28;1088510;47;1036;-82
2023/10/25 07:54:58;;;;;;;;;;;;;;;12.28;78.41;98444.09;1088597;46;965;-81
2023/10/25 07:56:07;;;;;;;;;;;;;;;12.25;78.30;98444.50;1088636;54;1093;-83
2023/10/25 07:57:12;;;;;;;;;;;;;;;12.27;77.94;98442.47;1088486;47;1395;-83
2023/10/25 08:04:32;;;;;;;;;;;;;;;12.16;78.13;98440.31;1088269;47;888;-79
2023/10/25 08:05:33;;;;;;;;;;;;;;;12.20;78.15;98430.03;1088058;47;1017;-81
2023/10/25 08:07:07;;;;;;;;;;;;;;;12.13;78.11;98430.00;1088350;47;1175;-81
2023/10/25 08:08:08;;;;;;;;;;;;;;;12.22;78.04;98433.38;1088065;47;872;-79
2023/10/25 08:09:11;;;;;;;;;;;;;;;12.22;78.14;98423.47;1086480;47;1171;-82
2023/10/25 08:10:17;;;;;;;;;;;;;;;12.28;77.70;98433.38;1088520;54;1036;-83
2023/10/25 08:11:45;;;;;;;;;;;;;;;12.37;77.82;98427.91;1088489;47;980;-83
2023/10/25 08:16:19;;;;;;;;;;;;;;;12.63;76.94;98420.03;1088233;54;1165;-82
2023/10/25 08:19:19;;;;;;;;;;;;;;;12.77;75.69;98422.75;1088208;47;921;-80
2023/10/25 08:20:19;;;;;;;;;;;;;;;12.84;76.32;98426.31;1088692;47;943;-79
2023/10/25 08:21:25;;;;;;;;;;;;;;;12.90;75.87;98420.16;1088589;47;1860;-83
2023/10/25 08:22:26;;;;;;;;;;;;;;;12.85;74.88;98411.03;1088567;47;973;-80
2023/10/25 08:23:34;;;;;;;;;;;;;;;12.78;75.15;98414.53;1088117;47;996;-82
2023/10/25 08:24:39;;;;;;;;;;;;;;;12.87;74.61;98409.00;1088250;54;1107;-80
2023/10/25 08:25:51;;;;;;;;;;;;;;;12.98;74.76;98415.63;1087462;47;1108;-80
2023/10/25 08:26:58;;;;;;;;;;;;;;;12.98;74.80;98419.16;1088175;47;1178;-80
2023/10/25 08:28:02;;;;;;;;;;;;;;;13.07;74.10;98419.78;1088488;54;1059;-82
2023/10/25 08:29:05;;;;;;;;;;;;;;;13.19;73.69;98418.19;1088405;47;943;-83
2023/10/25 08:30:17;;;;;;;;;;;;;;;13.34;73.62;98419.88;1088542;47;1604;-81
2023/10/25 08:31:24;;;;;;;;;;;;;;;13.33;72.86;98415.53;1088459;47;962;-83
2023/10/25 08:32:30;;;;;;;;;;;;;;;13.39;72.87;98420.13;1088580;47;1041;-83
2023/10/25 08:33:33;;;;;;;;;;;;;;;13.59;71.77;98416.66;1088422;54;1102;-80
2023/10/25 08:34:36;;;;;;;;;;;;;;;13.74;71.83;98414.63;1088877;54;947;-83
2023/10/25 08:35:41;;;;;;;;;;;;;;;13.85;71.37;98415.84;1088896;54;1024;-82
2023/10/25 08:41:43;;;;;;;;;;;;;;;13.90;70.62;98413.38;1088611;47;1858;-82
2023/10/25 08:42:57;;;;;;;;;;;;;;;13.94;69.96;98409.25;1088418;47;1095;-80
2023/10/25 08:44:16;;;;;;;;;;;;;;;;;;;;;
2023/10/25 08:45:21;;;;;;;;;;;;;;;13.89;69.82;98401.81;1088584;54;931;-81
2023/10/25 08:46:27;;;;;;;;;;;;;;;14.01;70.35;98399.34;1087350;54;1428;-80
2023/10/25 08:47:28;;;;;;;;;;;;;;;13.96;69.23;98398.31;1087399;46;1036;-80
2023/10/25 08:48:32;;;;;;;;;;;;;;;13.99;70.09;98390.66;1088228;54;1091;-80
2023/10/25 08:49:59;;;;;;;;;;;;;;;14.09;70.17;98390.22;1088671;47;1127;-81
2023/10/25 08:52:40;;;;;;;;;;;;;;;14.16;70.12;98374.09;1088552;46;810;-81
2023/10/25 08:53:42;;;;;;;;;;;;;;;14.15;69.81;98381.34;1088719;47;929;-82
2023/10/25 08:55:01;;;;;;;;;;;;;;;14.20;69.89;98369.97;1089006;54;1319;-83
2023/10/25 09:01:00;;;;;;;;;;;;;;;14.23;68.62;98368.72;1088501;47;1860;-79
2023/10/25 09:02:24;;;;;;;;;;;;;;;14.30;68.33;98364.16;1088801;47;1059;-81
2023/10/25 09:03:43;;;;;;;;;;;;;;;14.19;68.55;98363.75;1087939;54;1229;-81
2023/10/25 09:04:58;;;;;;;;;;;;;;;14.15;68.55;98350.94;1087916;47;1045;-80
2023/10/25 09:06:06;;;;;;;;;;;;;;;14.13;68.35;98353.00;1088376;54;1056;-79
2023/10/25 09:07:21;;;;;;;;;;;;;;;14.09;68.98;98351.78;1088334;47;1238;-79
2023/10/25 09:08:26;;;;;;;;;;;;;;;14.01;69.45;98356.34;1088277;47;1063;-79
2023/10/25 09:09:37;;;;;;;;;;;;;;;13.93;69.64;98347.69;1088038;47;846;-80
2023/10/25 09:10:41;;;;;;;;;;;;;;;13.98;69.38;98347.91;1088025;46;981;-80
2023/10/25 09:11:53;;;;;;;;;;;;;;;14.00;69.60;98337.75;1088081;54;1179;-81
2023/10/25 09:22:43;;;;;;;;;;;;;;;13.87;69.98;98338.59;1088916;54;1701;-81
2023/10/25 09:23:59;;;;;;;;;;;;;;;13.67;69.98;98335.91;1088658;47;972;-79
2023/10/25 09:25:03;;;;;;;;;;;;;;;13.69;70.55;98337.34;1088608;47;855;-78
2023/10/25 09:26:28;;;;;;;;;;;;;;;13.70;70.48;98340.84;1088559;46;970;-79
2023/10/25 09:27:39;;;;;;;;;;;;;;;13.70;70.41;98346.22;1088641;47;977;-81
2023/10/25 09:28:54;;;;;;;;;;;;;;;13.61;70.72;98342.94;1088864;54;1126;-80
2023/10/25 09:30:15;;;;;;;;;;;;;;;13.61;71.02;98344.78;1088687;47;1066;-77
2023/10/25 09:31:19;;;;;;;;;;;;;;;13.60;70.99;98337.78;1088733;47;921;-80
2023/10/25 09:32:24;;;;;;;;;;;;;;;13.64;71.23;98345.22;1088678;54;1028;-79
2023/10/25 09:33:32;;;;;;;;;;;;;;;13.65;71.45;98337.97;1088507;54;1102;-81
2023/10/25 09:34:36;;;;;;;;;;;;;;;13.61;71.61;98350.16;1088840;47;880;-79
2023/10/25 09:35:42;;;;;;;;;;;;;;;13.56;71.64;98342.72;1088760;47;1147;-79
2023/10/25 09:53:56;;;;;;;;;;;;;;;;;;;;;
2023/10/25 10:44:17;;;;;;;;;;;;;;;13.37;76.55;98227.06;1088323;47;902;-79
2023/10/25 10:45:39;;;;;;;;;;;;;;;13.35;76.42;98220.25;1088196;47;967;-79
2023/10/25 10:47:00;;;;;;;;;;;;;;;;;;;;;
2023/10/25 10:48:13;;;;;;;;;;;;;;;13.36;77.32;98219.22;1087967;54;971;-79
2023/10/25 10:49:58;;;;;;;;;;;;;;;13.33;77.06;98208.91;1088221;47;955;-79
2023/10/25 10:51:12;;;;;;;;;;;;;;;;;;;;;
2023/10/25 10:52:32;;;;;;;;;;;;;;;13.32;77.20;98208.09;1087859;47;981;-81
2023/10/25 10:53:49;;;;;;;;;;;;;;;13.36;77.60;98203.13;1087759;47;963;-78
2023/10/25 10:54:49;;;;;;;;;;;;;;;13.33;77.38;98192.78;1087768;54;1024;-79
2023/10/25 10:57:34;;;;;;;;;;;;;;;13.29;77.57;98187.03;1087636;47;1358;-80
2023/10/25 10:58:35;;;;;;;;;;;;;;;13.31;77.66;98182.28;1087751;47;947;-79
2023/10/25 10:59:46;;;;;;;;;;;;;;;13.29;78.02;98170.09;1087638;47;1457;-80
2023/10/25 11:00:47;;;;;;;;;;;;;;;13.30;78.29;98166.41;1087823;47;1503;-79
2023/10/25 11:01:51;;;;;;;;;;;;;;;13.30;78.12;98163.72;1087857;47;1864;-80
2023/10/25 11:02:52;;;;;;;;;;;;;;;13.28;78.01;98155.84;1087771;47;969;-79
2023/10/25 11:03:59;;;;;;;;;;;;;;;13.31;77.71;98160.00;1087992;54;1026;-80
2023/10/25 11:04:59;;;;;;;;;;;;;;;13.33;77.60;98156.06;1088315;47;1549;-79
2023/10/25 11:06:03;;;;;;;;;;;;;;;13.33;77.58;98149.84;1088360;47;1419;-80
2023/10/25 11:07:03;;;;;;;;;;;;;;;13.37;77.37;98146.53;1088437;47;1330;-81
2023/10/25 11:08:08;;;;;;;;;;;;;;;13.35;76.33;98137.91;1088255;47;1474;-79
2023/10/25 11:09:12;;;;;;;;;;;;;;;13.45;77.07;98147.41;1088280;54;973;-80
2023/10/25 11:10:12;;;;;;;;;;;;;;;13.49;76.42;98144.09;1088456;54;1111;-80
2023/10/25 11:11:16;;;;;;;;;;;;;;;13.50;76.69;98139.53;1088468;47;1395;-80
2023/10/25 11:12:17;;;;;;;;;;;;;;;13.49;76.32;98133.38;1088390;54;968;-80
2023/10/25 11:13:20;;;;;;;;;;;;;;;13.54;76.47;98130.03;1088456;47;1472;-80
2023/10/25 11:14:21;;;;;;;;;;;;;;;13.59;76.01;98132.09;1088405;54;966;-81
2023/10/25 11:15:30;;;;;;;;;;;;;;;13.61;75.96;98133.53;1088481;54;928;-80
2023/10/25 11:16:31;;;;;;;;;;;;;;;13.65;76.04;98128.56;1088467;54;1401;-79
2023/10/25 11:17:40;;;;;;;;;;;;;;;13.66;75.98;98127.53;1088718;47;1507;-80
2023/10/25 11:18:41;;;;;;;;;;;;;;;13.63;75.69;98128.78;1088589;54;970;-81
2023/10/25 11:20:20;;;;;;;;;;;;;;;13.67;75.40;98127.31;1088725;46;1064;-81
2023/10/25 11:21:21;;;;;;;;;;;;;;;13.71;75.17;98122.31;1088641;47;1844;-79
2023/10/25 11:22:24;;;;;;;;;;;;;;;13.69;74.55;98124.44;1088742;54;981;-79
2023/10/25 11:23:38;;;;;;;;;;;;;;;13.70;74.81;98108.09;1088516;47;1522;-83
2023/10/25 11:24:41;;;;;;;;;;;;;;;13.76;75.55;98106.44;1088404;54;1000;-80
2023/10/25 11:25:42;;;;;;;;;;;;;;;13.81;74.93;98097.72;1088236;54;1031;-80
2023/10/25 11:26:46;;;;;;;;;;;;;;;13.85;75.17;98101.63;1088337;47;1372;-80
2023/10/25 11:27:47;;;;;;;;;;;;;;;13.86;74.93;98100.59;1088328;47;1537;-80
2023/10/25 11:28:50;;;;;;;;;;;;;;;13.83;74.33;98096.47;1088146;54;922;-80
2023/10/25 11:29:51;;;;;;;;;;;;;;;13.85;74.57;98097.09;1088303;54;1074;-79
2023/10/25 11:31:02;;;;;;;;;;;;;;;13.88;74.67;98091.28;1088355;47;1077;-79
2023/10/25 11:32:14;;;;;;;;;;;;;;;13.91;74.30;98090.03;1088371;54;1025;-79
2023/10/25 11:33:18;;;;;;;;;;;;;;;13.93;73.71;98090.66;1088345;47;1467;-79
2023/10/25 11:34:19;;;;;;;;;;;;;;;13.95;74.33;98082.38;1088266;54;1026;-80
2023/10/25 11:35:21;;;;;;;;;;;;;;;13.96;74.11;98087.53;1088472;54;1000;-80
2023/10/25 11:36:25;;;;;;;;;;;;;;;14.00;74.26;98079.84;1088390;54;1388;-81
2023/10/25 11:37:27;;;;;;;;;;;;;;;14.00;74.51;98085.22;1088351;47;1467;-79
2023/10/25 11:38:30;;;;;;;;;;;;;;;14.07;74.76;98088.72;1088450;47;1036;-80
2023/10/25 11:39:33;;;;;;;;;;;;;;;14.01;74.91;98082.34;1088368;47;1561;-79
2023/10/25 11:40:47;;;;;;;;;;;;;;;14.08;74.59;98087.66;1088534;54;1074;-81
2023/10/25 11:41:48;;;;;;;;;;;;;;;14.09;75.32;98086.63;1088218;54;1849;-80
2023/10/25 11:43:08;;;;;;;;;;;;;;;14.09;74.52;98083.13;1088339;47;989;-80
2023/10/25 11:44:09;;;;;;;;;;;;;;;14.14;74.09;98072.53;1088289;47;1480;-79
2023/10/25 11:45:17;;;;;;;;;;;;;;;14.14;74.23;98076.06;1088336;54;941;-80
2023/10/25 11:46:23;;;;;;;;;;;;;;;14.19;73.89;98078.91;1088457;47;2458;-81
2023/10/25 11:47:28;;;;;;;;;;;;;;;14.22;73.94;98072.28;1088293;47;1515;-80
2023/10/25 11:48:29;;;;;;;;;;;;;;;14.30;74.15;98068.50;1088070;54;1048;-81
2023/10/25 11:49:34;;;;;;;;;;;;;;;14.31;73.11;98067.47;1088281;47;1015;-80
2023/10/25 11:50:35;;;;;;;;;;;;;;;14.38;73.74;98054.00;1088252;54;1760;-79
2023/10/25 11:51:38;;;;;;;;;;;;;;;14.40;73.38;98050.03;1088331;47;1631;-80
2023/10/25 11:52:40;;;;;;;;;;;;;;;14.39;72.67;98051.09;1088456;54;966;-79
2023/10/25 11:53:47;;;;;;;;;;;;;;;14.47;73.27;98040.06;1088709;54;1046;-80
2023/10/25 11:54:48;;;;;;;;;;;;;;;14.50;72.94;98039.63;1088658;54;974;-80
2023/10/25 11:55:52;;;;;;;;;;;;;;;14.55;73.02;98038.16;1088583;47;1553;-80
2023/10/25 11:56:53;;;;;;;;;;;;;;;14.56;73.04;98042.47;1088425;54;1357;-79
2023/10/25 11:57:56;;;;;;;;;;;;;;;14.56;73.28;98035.25;1088559;54;988;-79
2023/10/25 11:58:57;;;;;;;;;;;;;;;14.59;73.79;98036.66;1088506;54;996;-80
2023/10/25 12:00:00;;;;;;;;;;;;;;;14.59;73.73;98033.97;1088704;47;1054;-81
2023/10/25 12:01:04;;;;;;;;;;;;;;;14.61;73.93;98024.63;1088636;54;1029;-80
2023/10/25 12:02:11;;;;;;;;;;;;;;;14.63;74.10;98019.88;1088701;47;1845;-81
2023/10/25 12:03:14;;;;;;;;;;;;;;;14.58;73.06;98014.34;1088811;47;1381;-81
2023/10/25 12:04:17;;;;;;;;;;;;;;;14.63;72.51;98016.38;1088670;47;1414;-79
2023/10/25 12:05:19;;;;;;;;;;;;;;;14.64;72.83;98007.25;1088700;47;1427;-80
2023/10/25 12:06:22;;;;;;;;;;;;;;;14.69;72.85;98006.63;1088704;54;1355;-80
2023/10/25 12:10:41;;;;;;;;;;;;;;;14.68;71.49;97997.72;1088732;47;1059;-81
2023/10/25 12:15:13;;;;;;;;;;;;;;;14.68;71.88;97988.84;1088743;47;1074;-80
2023/10/25 12:16:16;;;;;;;;;;;;;;;14.70;72.22;97986.72;1088678;47;1860;-80
2023/10/25 12:17:25;;;;;;;;;;;;;;;14.71;71.48;97981.16;1088583;47;1882;-80
2023/10/25 12:20:32;;;;;;;;;;;;;;;14.66;71.23;97984.50;1088932;47;809;-81
2023/10/25 12:21:34;;;;;;;;;;;;;;;14.68;71.63;97978.91;1088468;47;1849;-80
2023/10/25 12:22:37;;;;;;;;;;;;;;;14.65;71.25;97973.91;1088584;54;1166;-80
2023/10/25 12:23:40;;;;;;;;;;;;;;;14.64;71.10;97967.75;1088768;54;1050;-80
2023/10/25 12:24:48;;;;;;;;;;;;;;;14.67;71.46;97974.56;1088764;54;1059;-81
2023/10/25 12:25:48;;;;;;;;;;;;;;;14.68;71.21;97973.53;1088719;54;1002;-81
2023/10/25 12:27:06;;;;;;;;;;;;;;;14.67;71.72;97977.25;1088612;54;1274;-81
2023/10/25 12:34:00;;;;;;;;;;;;;;;14.61;72.56;97948.53;1088506;47;1011;-80
2023/10/25 12:35:01;;;;;;;;;;;;;;;14.63;72.47;97949.97;1088484;54;1233;-79
2023/10/25 12:39:17;;;;;;;;;;;;;;;14.57;72.85;97955.41;1088635;47;1638;-80
2023/10/25 12:40:20;;;;;;;;;;;;;;;14.65;72.70;97947.88;1088609;54;1064;-81
2023/10/25 12:41:20;;;;;;;;;;;;;;;14.69;72.87;97947.47;1088653;54;1654;-80
2023/10/25 12:42:24;;;;;;;;;;;;;;;14.66;72.90;97951.38;1088627;47;2019;-80
2023/10/25 12:43:30;;;;;;;;;;;;;;;14.62;72.82;97948.31;1088607;54;976;-81
2023/10/25 12:44:45;;;;;;;;;;;;;;;14.66;72.68;97943.31;1088703;54;1202;-80
2023/10/25 12:45:48;;;;;;;;;;;;;;;14.71;72.48;97946.19;1088437;47;1478;-80
2023/10/25 12:46:52;;;;;;;;;;;;;;;14.74;72.33;97934.97;1088473;54;1343;-81
2023/10/25 12:47:56;;;;;;;;;;;;;;;14.73;72.49;97933.34;1088516;54;1359;-80
2023/10/25 12:49:03;;;;;;;;;;;;;;;14.77;72.23;97937.22;1088382;47;1136;-80
2023/10/25 12:50:05;;;;;;;;;;;;;;;14.77;72.53;97929.16;1088504;47;1013;-80
2023/10/25 12:51:08;;;;;;;;;;;;;;;14.82;72.69;97934.69;1088479;47;1967;-80
2023/10/25 12:52:09;;;;;;;;;;;;;;;14.80;72.31;97936.78;1088368;47;1474;-80
2023/10/25 12:53:12;;;;;;;;;;;;;;;14.82;72.13;97940.09;1088324;54;948;-79
2023/10/25 12:54:13;;;;;;;;;;;;;;;14.84;72.40;97941.69;1088379;47;1483;-79
2023/10/25 12:55:21;;;;;;;;;;;;;;;14.81;72.60;97935.75;1088574;47;1368;-80
2023/10/25 12:56:23;;;;;;;;;;;;;;;14.85;72.47;97938.81;1088637;54;1356;-81
2023/10/25 12:57:26;;;;;;;;;;;;;;;14.83;72.37;97930.13;1088589;47;1402;-80
2023/10/25 12:58:27;;;;;;;;;;;;;;;14.82;72.35;97926.63;1088457;54;1021;-81
2023/10/25 12:59:30;;;;;;;;;;;;;;;14.85;72.48;97924.53;1088174;47;1470;-80
2023/10/25 13:00:31;;;;;;;;;;;;;;;14.82;72.29;97926.63;1088047;47;1435;-79
2023/10/25 13:01:38;;;;;;;;;;;;;;;14.85;72.16;97928.03;1088155;54;1021;-80
2023/10/25 13:02:38;;;;;;;;;;;;;;;14.81;72.74;97930.38;1088136;47;1842;-80
2023/10/25 13:10:14;;;;;;;;;;;;;;;14.63;74.66;97898.06;1088184;47;1170;-80
2023/10/25 13:11:15;;;;;;;;;;;;;;;14.65;74.49;97885.19;1088018;54;1112;-80
2023/10/25 13:12:18;;;;;;;;;;;;;;;14.70;74.50;97889.94;1088198;47;1703;-80
2023/10/25 13:13:21;;;;;;;;;;;;;;;14.71;74.68;97892.41;1088088;47;960;-81
2023/10/25 13:14:25;;;;;;;;;;;;;;;14.71;74.69;97891.56;1088146;54;1008;-81
2023/10/25 13:15:47;;;;;;;;;;;;;;;14.68;74.52;97890.16;1088166;47;931;-81
2023/10/25 13:16:51;;;;;;;;;;;;;;;14.67;74.93;97893.88;1087884;47;1375;-81
2023/10/25 13:18:12;;;;;;;;;;;;;;;14.71;74.56;97892.41;1088180;54;993;-80
2023/10/25 13:19:24;;;;;;;;;;;;;;;14.73;74.88;97890.31;1088146;47;1512;-80
2023/10/25 13:22:22;;;;;;;;;;;;;;;14.76;74.92;97900.63;1088779;46;1835;-81
2023/10/25 13:24:02;;;;;;;;;;;;;;;14.78;74.84;97900.41;1088735;47;1058;-81
2023/10/25 13:26:56;;;;;;;;;;;;;;;14.76;75.21;97892.53;1088477;47;1484;-79
2023/10/25 13:37:13;;;;;;;;;;;;;;;14.88;75.65;97886.41;1088256;47;1175;-79
2023/10/25 13:38:14;;;;;;;;;;;;;;;14.91;75.41;97880.59;1088381;47;1011;-79
2023/10/25 13:39:17;;;;;;;;;;;;;;;14.92;74.67;97877.69;1088369;54;1002;-79
2023/10/25 13:40:18;;;;;;;;;;;;;;;14.98;73.90;97884.81;1088276;47;1527;-80
2023/10/25 13:41:23;;;;;;;;;;;;;;;15.06;73.81;97878.31;1088293;47;1327;-79
2023/10/25 13:42:24;;;;;;;;;;;;;;;15.16;74.05;97879.66;1088342;54;1842;-80
2023/10/25 13:43:27;;;;;;;;;;;;;;;15.20;73.36;97878.16;1088244;54;1011;-79
2023/10/25 13:44:29;;;;;;;;;;;;;;;15.28;73.22;97877.84;1088265;47;958;-81
2023/10/25 13:47:03;;;;;;;;;;;;;;;15.35;72.00;97875.88;1088701;47;1360;-79
2023/10/25 13:48:08;;;;;;;;;;;;;;;15.42;72.09;97871.19;1088458;54;1041;-80
2023/10/25 13:52:15;;;;;;;;;;;;;;;15.64;71.48;97868.00;1088747;47;1351;-80
2023/10/25 13:53:16;;;;;;;;;;;;;;;15.70;71.48;97858.97;1088475;54;1059;-80
2023/10/25 13:55:40;;;;;;;;;;;;;;;15.65;71.82;97852.66;1088414;46;1037;-80
2023/10/25 13:56:58;;;;;;;;;;;;;;;15.69;71.90;97851.13;1088373;47;1484;-79
2023/10/25 13:58:04;;;;;;;;;;;;;;;15.70;71.71;97850.91;1088535;46;1350;-80
2023/10/25 13:59:10;;;;;;;;;;;;;;;15.74;71.61;97844.00;1088469;54;985;-79
2023/10/25 14:00:26;;;;;;;;;;;;;;;15.66;71.24;97838.13;1088550;47;1428;-82
2023/10/25 14:01:28;;;;;;;;;;;;;;;15.75;71.07;97842.13;1088476;54;1140;-80
2023/10/25 14:02:53;;;;;;;;;;;;;;;;;;;;;
2023/10/25 14:05:42;;;;;;;;;;;;;;;15.76;71.37;97843.75;1088208;46;984;-81
2023/10/25 14:06:46;;;;;;;;;;;;;;;15.76;71.18;97835.69;1088521;47;2000;-81
2023/10/25 14:07:50;;;;;;;;;;;;;;;15.72;71.25;97838.03;1088470;54;1038;-82
2023/10/25 14:08:50;;;;;;;;;;;;;;;15.81;71.13;97835.81;1088396;54;1727;-81
2023/10/25 14:10:10;;;;;;;;;;;;;;;15.81;71.08;97835.81;1088739;54;1070;-82
2023/10/25 14:11:11;;;;;;;;;;;;;;;15.78;70.22;97828.19;1088473;47;1235;-80
2023/10/25 14:12:17;;;;;;;;;;;;;;;15.79;70.59;97829.00;1088675;47;1046;-80
2023/10/25 14:13:20;;;;;;;;;;;;;;;15.80;70.39;97822.56;1088750;54;836;-81
2023/10/25 14:14:31;;;;;;;;;;;;;;;15.69;70.29;97819.63;1088595;47;1478;-81
2023/10/25 14:17:28;;;;;;;;;;;;;;;15.84;69.14;97816.50;1088734;54;1372;-81
2023/10/25 14:18:30;;;;;;;;;;;;;;;15.90;68.99;97812.06;1088359;47;924;-80
2023/10/25 14:19:46;;;;;;;;;;;;;;;15.91;68.78;97808.31;1088623;54;881;-81
2023/10/25 14:20:47;;;;;;;;;;;;;;;15.91;69.04;97808.31;1088554;46;1091;-80
2023/10/25 14:21:51;;;;;;;;;;;;;;;15.88;69.10;97808.78;1088287;54;1041;-80
2023/10/25 14:22:54;;;;;;;;;;;;;;;15.94;69.08;97807.88;1088144;47;1858;-80
2023/10/25 14:24:03;;;;;;;;;;;;;;;15.88;68.78;97806.09;1088237;47;954;-79
2023/10/25 14:25:16;;;;;;;;;;;;;;;15.94;68.97;97807.03;1088106;47;1000;-79
2023/10/25 14:30:56;;;;;;;;;;;;;;;15.98;68.86;97805.50;1087851;54;1147;-83
2023/10/25 14:31:59;;;;;;;;;;;;;;;16.01;68.64;97805.06;1087950;54;1047;-81
2023/10/25 14:33:02;;;;;;;;;;;;;;;15.98;68.52;97803.63;1087672;47;1057;-83
2023/10/25 14:34:03;;;;;;;;;;;;;;;15.94;68.32;97805.16;1088142;47;1054;-83
2023/10/25 14:35:14;;;;;;;;;;;;;;;15.97;68.79;97806.56;1087926;46;1040;-85
2023/10/25 14:36:16;;;;;;;;;;;;;;;15.99;67.98;97802.56;1087827;54;1463;-85
2023/10/25 14:37:19;;;;;;;;;;;;;;;15.96;67.98;97803.06;1088332;54;1108;-84
2023/10/25 14:38:21;;;;;;;;;;;;;;;15.99;67.92;97799.88;1088225;54;1075;-83
2023/10/25 14:39:24;;;;;;;;;;;;;;;15.98;67.70;97798.25;1087708;46;1160;-83
2023/10/25 14:40:25;;;;;;;;;;;;;;;15.97;67.79;97790.41;1088125;46;1164;-82
2023/10/25 14:41:32;;;;;;;;;;;;;;;15.94;67.51;97799.78;1088033;46;1034;-82
2023/10/25 14:42:34;;;;;;;;;;;;;;;15.89;67.91;97799.66;1087931;54;1847;-82
2023/10/25 14:43:37;;;;;;;;;;;;;;;15.89;67.86;97797.78;1087831;54;1133;-81
2023/10/25 14:44:38;;;;;;;;;;;;;;;15.91;67.67;97800.25;1088107;54;1025;-84
2023/10/25 14:45:45;;;;;;;;;;;;;;;15.83;67.72;97789.78;1087978;54;1015;-82
2023/10/25 14:46:55;;;;;;;;;;;;;;;15.84;67.43;97796.84;1087952;46;1288;-83
2023/10/25 14:48:00;;;;;;;;;;;;;;;15.87;67.41;97801.78;1088328;54;1099;-85
2023/10/25 14:49:02;;;;;;;;;;;;;;;15.89;67.86;97799.66;1088384;54;1123;-83
2023/10/25 14:50:08;;;;;;;;;;;;;;;15.90;67.52;97790.50;1088075;54;1530;-83
2023/10/25 14:51:15;;;;;;;;;;;;;;;15.83;68.25;97795.19;1088115;47;1065;-83
2023/10/25 14:52:19;;;;;;;;;;;;;;;15.72;69.11;97794.13;1087796;47;1089;-82
2023/10/25 14:53:19;;;;;;;;;;;;;;;15.62;69.00;97793.88;1087926;47;898;-82
2023/10/25 14:54:24;;;;;;;;;;;;;;;15.66;69.02;97795.03;1088119;47;988;-83
2023/10/25 14:55:25;;;;;;;;;;;;;;;15.66;69.31;97792.34;1087880;47;973;-83
2023/10/25 14:56:36;;;;;;;;;;;;;;;15.70;69.24;97785.44;1087693;47;1457;-84
2023/10/25 14:57:37;;;;;;;;;;;;;;;15.68;69.36;97788.34;1088005;54;1067;-83
2023/10/25 14:58:41;;;;;;;;;;;;;;;15.64;69.49;97787.19;1088271;54;1109;-83
2023/10/25 14:59:43;;;;;;;;;;;;;;;15.61;69.76;97782.28;1088108;54;1010;-84
2023/10/25 15:00:52;;;;;;;;;;;;;;;15.64;69.37;97787.19;1088123;47;1038;-84
2023/10/25 15:01:55;;;;;;;;;;;;;;;15.70;69.44;97780.88;1087619;47;1051;-83
2023/10/25 15:03:04;;;;;;;;;;;;;;;15.70;69.48;97780.88;1088120;54;1861;-85
2023/10/25 15:04:10;;;;;;;;;;;;;;;15.68;69.63;97777.59;1088299;54;1003;-85
2023/10/25 15:05:14;;;;;;;;;;;;;;;15.64;69.80;97780.97;1087999;54;1025;-81
2023/10/25 15:06:15;;;;;;;;;;;;;;;15.55;70.30;97781.31;1088164;54;1375;-82
2023/10/25 15:07:18;;;;;;;;;;;;;;;15.55;70.27;97789.41;1088097;54;1019;-83
2023/10/25 15:08:19;;;;;;;;;;;;;;;15.50;70.80;97791.16;1088199;47;952;-83
2023/10/25 15:09:24;;;;;;;;;;;;;;;15.52;70.78;97789.06;1088165;47;1090;-83
2023/10/25 15:10:33;;;;;;;;;;;;;;;15.57;70.32;97781.91;1088252;54;1061;-85
2023/10/25 15:11:38;;;;;;;;;;;;;;;15.55;71.03;97785.91;1087823;54;1104;-82
2023/10/25 15:12:40;;;;;;;;;;;;;;;15.59;70.82;97784.38;1087691;54;1094;-82
2023/10/25 15:13:45;;;;;;;;;;;;;;;15.54;70.96;97770.78;1087574;47;1046;-85
2023/10/25 15:14:45;;;;;;;;;;;;;;;15.43;71.08;97773.25;1087800;47;983;-83
2023/10/25 15:15:49;;;;;;;;;;;;;;;15.42;71.75;97768.09;1087823;47;1054;-82
2023/10/25 15:16:50;;;;;;;;;;;;;;;15.47;71.76;97770.09;1087119;54;1328;-81
2023/10/25 15:17:58;;;;;;;;;;;;;;;15.50;71.59;97769.59;1087681;54;1168;-82
2023/10/25 15:18:59;;;;;;;;;;;;;;;15.49;71.34;97768.00;1087847;54;1078;-83
2023/10/25 15:20:03;;;;;;;;;;;;;;;15.50;71.41;97766.91;1087999;54;1016;-84
2023/10/25 15:21:04;;;;;;;;;;;;;;;15.43;71.93;97775.13;1088201;54;987;-84
2023/10/25 15:22:08;;;;;;;;;;;;;;;15.46;71.92;97769.25;1088171;54;1113;-83
2023/10/25 15:23:10;;;;;;;;;;;;;;;15.47;71.54;97768.22;1088044;47;1850;-84
2023/10/25 15:24:14;;;;;;;;;;;;;;;15.46;71.81;97760.38;1088141;47;904;-84
2023/10/25 15:25:16;;;;;;;;;;;;;;;15.46;72.01;97760.38;1088086;54;1088;-84
2023/10/25 15:26:22;;;;;;;;;;;;;;;15.38;72.03;97759.66;1088144;54;1314;-83
2023/10/25 15:27:23;;;;;;;;;;;;;;;15.38;72.29;97756.97;1087815;54;1009;-83